Time;durP1;ratioP1;P1;durP2;ratioP2;P2;SDS_P1;SDS_P2;PMS_P1;PMS_P2;Temp;Humidity;BMP_temperature;BMP_pressure;BME280_temperature;BME280_humidity;BME280_pressure;Samples;Min_cycle;Max_cycle;Signal;HPM_P1;HPM_P2
2021/08/13 00:00:05;;;;;;;;;17.00;14.33;;;;;;;;2567493;30;151512;-83
2021/08/13 00:02:33;;;;;;;;;14.33;14.33;;;;;;;;2564576;38;151536;-81
2021/08/13 00:05:02;;;;;;;;;24.25;22.50;;;;;;;;2567754;30;149640;-82
2021/08/13 00:07:31;;;;;;;;;20.00;18.67;;;;;;;;2567506;38;150928;-83
2021/08/13 00:10:00;;;;;;;;;12.00;11.33;;;;;;;;2565032;38;150011;-81
2021/08/13 00:12:28;;;;;;;;;13.33;13.00;;;;;;;;2565965;30;150607;-81
2021/08/13 00:14:57;;;;;;;;;13.67;13.67;;;;;;;;2566024;38;151420;-81
2021/08/13 00:17:25;;;;;;;;;12.00;12.00;;;;;;;;2567812;30;150369;-81
2021/08/13 00:19:54;;;;;;;;;15.33;12.00;;;;;;;;2568281;30;150528;-80
2021/08/13 00:22:22;;;;;;;;;11.00;10.33;;;;;;;;2567443;30;152311;-81
2021/08/13 00:24:52;;;;;;;;;13.33;11.00;;;;;;;;2566015;38;149639;-82
2021/08/13 00:27:20;;;;;;;;;12.00;12.00;;;;;;;;2565218;38;151198;-82
2021/08/13 00:29:48;;;;;;;;;12.67;11.33;;;;;;;;2569397;30;151950;-81
2021/08/13 00:32:17;;;;;;;;;16.33;14.00;;;;;;;;2566350;30;150735;-81
2021/08/13 00:34:45;;;;;;;;;15.33;12.00;;;;;;;;2566862;30;151209;-82
2021/08/13 00:37:13;;;;;;;;;15.67;13.00;;;;;;;;2568580;30;149747;-81
2021/08/13 00:39:41;;;;;;;;;17.33;15.00;;;;;;;;2569190;30;150375;-82
2021/08/13 00:42:11;;;;;;;;;14.33;13.33;;;;;;;;2567476;30;151232;-81
2021/08/13 00:44:39;;;;;;;;;19.75;19.25;;;;;;;;2567763;30;149227;-82
2021/08/13 00:47:08;;;;;;;;;14.00;14.00;;;;;;;;2565502;30;150719;-81
2021/08/13 00:49:36;;;;;;;;;13.67;12.33;;;;;;;;2567005;30;153052;-80
2021/08/13 00:52:05;;;;;;;;;17.00;16.50;;;;;;;;2568284;38;149230;-81
2021/08/13 00:54:33;;;;;;;;;14.00;14.00;;;;;;;;2564493;38;151909;-81
2021/08/13 00:57:01;;;;;;;;;13.33;12.00;;;;;;;;2568294;30;149766;-81
2021/08/13 00:59:31;;;;;;;;;16.33;15.00;;;;;;;;2565945;30;150873;-80
2021/08/13 01:01:59;;;;;;;;;13.00;12.33;;;;;;;;2565404;30;151527;-80
2021/08/13 01:04:28;;;;;;;;;13.00;13.00;;;;;;;;2567915;30;149311;-82
2021/08/13 01:06:56;;;;;;;;;14.00;13.00;;;;;;;;2565361;38;151857;-82
2021/08/13 01:09:25;;;;;;;;;12.67;11.67;;;;;;;;2567589;30;152251;-81
2021/08/13 01:11:57;;;;;;;;;12.00;12.00;;;;;;;;2566260;30;149259;-81
2021/08/13 01:14:28;;;;;;;;;12.67;12.67;;;;;;;;2566183;38;151399;-80
2021/08/13 01:16:58;;;;;;;;;14.67;12.00;;;;;;;;2566946;30;149349;-80
2021/08/13 01:19:33;;;;;;;;;13.00;12.00;;;;;;;;2564477;30;151776;-80
2021/08/13 01:22:03;;;;;;;;;13.00;12.00;;;;;;;;2568751;30;151945;-81
2021/08/13 01:24:33;;;;;;;;;13.00;12.00;;;;;;;;2565012;38;149483;-81
2021/08/13 01:27:03;;;;;;;;;13.00;11.00;;;;;;;;2565521;30;151433;-80
2021/08/13 01:29:36;;;;;;;;;13.33;12.00;;;;;;;;2569037;30;151218;-81
2021/08/13 01:32:11;;;;;;;;;12.00;12.00;;;;;;;;2566262;38;149738;-81
2021/08/13 01:34:42;;;;;;;;;13.00;12.00;;;;;;;;2568635;30;150515;-81
2021/08/13 01:37:10;;;;;;;;;12.00;12.00;;;;;;;;2566872;38;149710;-81
2021/08/13 01:39:39;;;;;;;;;15.00;15.00;;;;;;;;2565296;30;151601;-81
2021/08/13 01:42:08;;;;;;;;;15.25;15.25;;;;;;;;2567630;30;151806;-81
2021/08/13 01:44:37;;;;;;;;;15.00;13.00;;;;;;;;2565102;38;149314;-81
2021/08/13 01:47:06;;;;;;;;;16.67;16.33;;;;;;;;2565010;38;153025;-81
2021/08/13 01:49:35;;;;;;;;;15.33;14.33;;;;;;;;2568305;30;151770;-81
2021/08/13 01:52:06;;;;;;;;;14.00;13.00;;;;;;;;2566159;30;150791;-81
2021/08/13 01:54:34;;;;;;;;;17.00;16.67;;;;;;;;2568904;30;151459;-81
2021/08/13 01:57:03;;;;;;;;;20.25;19.00;;;;;;;;2567270;30;151893;-81
2021/08/13 01:59:34;;;;;;;;;13.25;13.25;;;;;;;;2568747;30;150519;-82
2021/08/13 02:02:03;;;;;;;;;13.33;12.67;;;;;;;;2567468;30;151228;-81
2021/08/13 02:04:32;;;;;;;;;13.67;13.00;;;;;;;;2565419;30;149642;-80
2021/08/13 02:07:01;;;;;;;;;15.00;13.00;;;;;;;;2567944;30;149450;-80
2021/08/13 02:09:31;;;;;;;;;11.33;11.00;;;;;;;;2568759;30;152086;-79
2021/08/13 02:12:00;;;;;;;;;16.00;14.00;;;;;;;;2567687;30;150847;-80
2021/08/13 02:14:28;;;;;;;;;15.67;13.00;;;;;;;;2568116;30;151282;-80
2021/08/13 02:16:58;;;;;;;;;13.00;13.00;;;;;;;;2567307;30;151213;-81
2021/08/13 02:19:27;;;;;;;;;14.50;14.50;;;;;;;;2568757;30;149435;-81
2021/08/13 02:21:56;;;;;;;;;12.50;12.00;;;;;;;;2563746;38;152102;-80
2021/08/13 02:24:24;;;;;;;;;15.33;13.67;;;;;;;;2564770;38;149676;-80
2021/08/13 02:26:54;;;;;;;;;15.00;14.00;;;;;;;;2565711;38;151439;-79
2021/08/13 02:29:23;;;;;;;;;9.67;9.33;;;;;;;;2566853;30;151208;-80
2021/08/13 02:31:51;;;;;;;;;15.33;13.00;;;;;;;;2567282;38;149412;-79
2021/08/13 02:34:20;;;;;;;;;14.00;14.00;;;;;;;;2569442;30;150910;-79
2021/08/13 02:36:52;;;;;;;;;14.67;12.33;;;;;;;;2567249;30;151849;-80
2021/08/13 02:39:23;;;;;;;;;11.67;11.67;;;;;;;;2565035;38;149329;-80
2021/08/13 02:41:53;;;;;;;;;12.67;12.67;;;;;;;;2569670;30;150584;-79
2021/08/13 02:44:23;;;;;;;;;13.33;12.33;;;;;;;;2565894;38;149202;-81
2021/08/13 02:46:54;;;;;;;;;16.33;15.33;;;;;;;;2564258;31;151325;-80
2021/08/13 02:49:23;;;;;;;;;17.00;14.00;;;;;;;;2566978;30;151119;-80
2021/08/13 02:51:56;;;;;;;;;14.33;12.33;;;;;;;;2568831;30;149367;-81
2021/08/13 02:54:27;;;;;;;;;13.00;13.00;;;;;;;;2566575;30;150901;-74
2021/08/13 02:56:56;;;;;;;;;15.67;13.00;;;;;;;;2568142;30;151036;-82
2021/08/13 02:59:27;;;;;;;;;13.00;13.00;;;;;;;;2568601;30;150539;-82
2021/08/13 03:01:57;;;;;;;;;14.33;14.33;;;;;;;;2567388;30;150652;-81
2021/08/13 03:04:27;;;;;;;;;12.33;12.33;;;;;;;;2570579;30;151156;-82
2021/08/13 03:06:56;;;;;;;;;14.00;12.67;;;;;;;;2565291;30;150850;-82
2021/08/13 03:09:25;;;;;;;;;13.00;13.00;;;;;;;;2564533;30;152014;-82
2021/08/13 03:11:55;;;;;;;;;11.67;11.00;;;;;;;;2565886;30;149645;-80
2021/08/13 03:14:24;;;;;;;;;15.67;13.67;;;;;;;;2567869;30;150547;-80
2021/08/13 03:16:55;;;;;;;;;11.25;11.25;;;;;;;;2566676;30;151936;-80
2021/08/13 03:19:25;;;;;;;;;11.00;10.33;;;;;;;;2565575;30;149692;-80
2021/08/13 03:21:54;;;;;;;;;13.00;10.00;;;;;;;;2567425;30;151448;-79
2021/08/13 03:24:22;;;;;;;;;13.00;12.50;;;;;;;;2565108;30;151166;-80
2021/08/13 03:26:50;;;;;;;;;12.67;12.00;;;;;;;;2570957;30;150897;-80
2021/08/13 03:29:19;;;;;;;;;13.75;13.25;;;;;;;;2566869;30;151149;-81
2021/08/13 03:31:48;;;;;;;;;13.00;12.75;;;;;;;;2564435;38;150676;-81
2021/08/13 03:34:18;;;;;;;;;12.00;12.00;;;;;;;;2566927;38;150977;-80
2021/08/13 03:36:47;;;;;;;;;12.67;11.33;;;;;;;;2565034;38;151211;-78
2021/08/13 03:39:15;;;;;;;;;12.33;12.33;;;;;;;;2566743;38;150055;-75
2021/08/13 03:41:43;;;;;;;;;12.00;12.00;;;;;;;;2567551;30;151273;-78
2021/08/13 03:44:12;;;;;;;;;13.00;13.00;;;;;;;;2665959;30;171668;-79
2021/08/13 03:46:40;;;;;;;;;13.75;13.75;;;;;;;;2567475;38;150255;-80
2021/08/13 03:49:08;;;;;;;;;15.50;12.25;;;;;;;;2566950;30;151108;-79
2021/08/13 03:51:38;;;;;;;;;11.75;11.75;;;;;;;;2565840;38;149732;-78
2021/08/13 03:54:07;;;;;;;;;14.50;12.75;;;;;;;;2565543;30;151574;-79
2021/08/13 03:56:36;;;;;;;;;13.00;13.00;;;;;;;;2565281;38;152876;-78
2021/08/13 03:59:04;;;;;;;;;11.75;11.75;;;;;;;;2568862;30;149704;-78
2021/08/13 04:01:33;;;;;;;;;11.25;11.00;;;;;;;;2568265;30;150692;-79
2021/08/13 04:04:02;;;;;;;;;16.00;14.00;;;;;;;;2566791;30;151966;-78
2021/08/13 04:06:30;;;;;;;;;14.00;12.75;;;;;;;;2565421;30;150480;-79
2021/08/13 04:09:00;;;;;;;;;13.25;13.25;;;;;;;;2570341;30;150698;-79
2021/08/13 04:11:28;;;;;;;;;13.25;13.00;;;;;;;;2566351;30;149203;-78
2021/08/13 04:13:56;;;;;;;;;14.00;12.75;;;;;;;;2566600;38;151602;-79
2021/08/13 04:16:24;;;;;;;;;17.00;15.00;;;;;;;;2568134;30;152042;-80
2021/08/13 04:18:53;;;;;;;;;13.00;13.00;;;;;;;;2566921;30;149418;-79
2021/08/13 04:21:21;;;;;;;;;17.75;12.75;;;;;;;;2567347;30;150642;-79
2021/08/13 04:23:49;;;;;;;;;13.00;12.50;;;;;;;;2567179;30;151583;-79
2021/08/13 04:26:19;;;;;;;;;14.00;12.25;;;;;;;;2565897;38;149537;-79
2021/08/13 04:28:47;;;;;;;;;11.25;11.25;;;;;;;;2567153;30;151420;-78
2021/08/13 04:31:16;;;;;;;;;14.00;13.25;;;;;;;;2569584;30;151935;-79
2021/08/13 04:33:44;;;;;;;;;14.00;13.00;;;;;;;;2570362;30;150664;-80
2021/08/13 04:36:12;;;;;;;;;12.50;12.50;;;;;;;;2567918;30;151543;-80
2021/08/13 04:38:41;;;;;;;;;11.00;11.00;;;;;;;;2565373;30;149492;-79
2021/08/13 04:41:09;;;;;;;;;12.50;12.50;;;;;;;;2565349;30;151061;-79
2021/08/13 04:43:39;;;;;;;;;12.75;12.25;;;;;;;;2568133;30;151462;-80
2021/08/13 04:46:07;;;;;;;;;13.00;13.00;;;;;;;;2568856;30;149637;-80
2021/08/13 04:48:35;;;;;;;;;15.25;11.75;;;;;;;;2568264;30;150523;-78
2021/08/13 04:51:04;;;;;;;;;11.00;11.00;;;;;;;;2564630;38;151125;-79
2021/08/13 04:53:32;;;;;;;;;13.75;13.50;;;;;;;;2570199;30;149200;-79
2021/08/13 04:56:01;;;;;;;;;12.25;12.00;;;;;;;;2565151;38;151875;-79
2021/08/13 04:58:29;;;;;;;;;14.00;12.00;;;;;;;;2568686;30;149547;-78
2021/08/13 05:00:59;;;;;;;;;15.00;13.50;;;;;;;;2569997;30;150776;-80
2021/08/13 05:03:27;;;;;;;;;13.00;12.75;;;;;;;;2566685;38;151980;-78
2021/08/13 05:05:56;;;;;;;;;15.00;13.00;;;;;;;;2567802;30;149986;-78
2021/08/13 05:08:24;;;;;;;;;14.25;12.75;;;;;;;;2566156;38;150575;-79
2021/08/13 05:10:52;;;;;;;;;13.25;13.25;;;;;;;;2563845;38;151043;-79
2021/08/13 05:13:21;;;;;;;;;13.25;12.25;;;;;;;;2565521;30;149440;-78
2021/08/13 05:15:49;;;;;;;;;15.50;13.00;;;;;;;;2568764;30;151768;-78
2021/08/13 05:18:19;;;;;;;;;16.50;15.50;;;;;;;;2566338;30;149467;-78
2021/08/13 05:20:47;;;;;;;;;17.00;16.00;;;;;;;;2569452;30;150669;-79
2021/08/13 05:23:16;;;;;;;;;15.00;15.00;;;;;;;;2565041;30;151634;-79
2021/08/13 05:25:44;;;;;;;;;16.00;16.00;;;;;;;;2564457;30;149845;-79
2021/08/13 05:28:12;;;;;;;;;13.00;12.00;;;;;;;;2568967;30;150549;-79
2021/08/13 05:30:41;;;;;;;;;15.75;14.75;;;;;;;;2565994;30;151757;-80
2021/08/13 05:33:09;;;;;;;;;16.50;13.75;;;;;;;;2569553;30;149795;-79
2021/08/13 05:35:39;;;;;;;;;15.25;15.25;;;;;;;;2565075;38;150700;-79
2021/08/13 05:38:07;;;;;;;;;16.25;15.00;;;;;;;;2567354;30;149612;-79
2021/08/13 05:40:37;;;;;;;;;15.00;15.00;;;;;;;;2568914;30;150601;-79
2021/08/13 05:43:05;;;;;;;;;14.00;14.00;;;;;;;;2564693;30;151016;-82
2021/08/13 05:45:33;;;;;;;;;13.75;13.75;;;;;;;;2567602;30;149214;-80
2021/08/13 05:48:05;;;;;;;;;12.50;12.50;;;;;;;;2567268;30;151810;-78
2021/08/13 05:50:33;;;;;;;;;18.50;17.50;;;;;;;;2567454;30;151635;-79
2021/08/13 05:53:03;;;;;;;;;19.75;18.75;;;;;;;;2567188;38;149475;-79
2021/08/13 05:55:31;;;;;;;;;14.00;14.00;;;;;;;;2567250;38;150902;-80
2021/08/13 05:57:59;;;;;;;;;15.00;13.50;;;;;;;;2567913;30;151200;-79
2021/08/13 06:00:28;;;;;;;;;14.00;13.75;;;;;;;;2568446;30;151750;-79
2021/08/13 06:02:58;;;;;;;;;17.25;14.50;;;;;;;;2567697;30;151184;-79
2021/08/13 06:05:26;;;;;;;;;15.00;13.00;;;;;;;;2566070;30;149404;-80
2021/08/13 06:07:54;;;;;;;;;17.00;15.00;;;;;;;;2567320;30;151550;-80
2021/08/13 06:10:31;;;;;;;;;17.00;15.50;;;;;;;;2564244;38;149824;-80
2021/08/13 06:12:59;;;;;;;;;17.50;16.50;;;;;;;;2565235;38;149899;-80
2021/08/13 06:15:30;;;;;;;;;12.25;10.50;;;;;;;;2568083;30;150913;-80
2021/08/13 06:17:59;;;;;;;;;16.00;14.25;;;;;;;;2566781;30;151002;-80
2021/08/13 06:20:27;;;;;;;;;13.50;13.50;;;;;;;;2568804;30;149298;-80
2021/08/13 06:22:55;;;;;;;;;14.25;13.75;;;;;;;;2568304;30;151895;-81
2021/08/13 06:25:24;;;;;;;;;16.00;13.00;;;;;;;;2565184;38;150190;-79
2021/08/13 06:27:53;;;;;;;;;16.00;15.00;;;;;;;;2565506;38;151334;-80
2021/08/13 06:30:23;;;;;;;;;14.00;13.25;;;;;;;;2565450;30;151251;-80
2021/08/13 06:32:53;;;;;;;;;13.25;13.25;;;;;;;;2564515;30;149803;-80
2021/08/13 06:35:21;;;;;;;;;14.25;14.25;;;;;;;;2566084;38;150811;-80
2021/08/13 06:37:51;;;;;;;;;12.50;12.25;;;;;;;;2567467;30;151123;-82
2021/08/13 06:40:19;;;;;;;;;17.25;14.00;;;;;;;;2568504;30;149304;-80
2021/08/13 06:42:47;;;;;;;;;14.00;14.00;;;;;;;;2568008;30;151764;-80
2021/08/13 06:45:18;;;;;;;;;15.75;14.00;;;;;;;;2566433;30;149621;-78
2021/08/13 06:47:50;;;;;;;;;14.00;14.00;;;;;;;;2566328;38;150839;-79
2021/08/13 06:50:18;;;;;;;;;15.50;13.00;;;;;;;;2567516;30;151912;-80
2021/08/13 06:52:47;;;;;;;;;15.25;14.75;;;;;;;;2564757;38;150082;-81
2021/08/13 06:55:15;;;;;;;;;15.50;15.50;;;;;;;;2567773;30;150663;-80
2021/08/13 06:57:43;;;;;;;;;13.75;13.75;;;;;;;;2563784;38;151419;-81
2021/08/13 07:00:13;;;;;;;;;18.50;15.75;;;;;;;;2564441;38;149560;-81
2021/08/13 07:02:46;;;;;;;;;14.50;14.50;;;;;;;;2566191;30;153206;-80
2021/08/13 07:05:15;;;;;;;;;15.25;15.00;;;;;;;;2569987;30;151236;-80
2021/08/13 07:07:43;;;;;;;;;17.25;14.00;;;;;;;;2568159;30;150816;-78
2021/08/13 07:10:14;;;;;;;;;18.00;14.33;;;;;;;;2565184;30;151171;-76
2021/08/13 07:12:43;;;;;;;;;15.67;14.67;;;;;;;;2565053;30;149427;-75
2021/08/13 07:15:12;;;;;;;;;15.67;15.00;;;;;;;;2566739;30;152845;-75
2021/08/13 07:17:41;;;;;;;;;11.50;11.50;;;;;;;;2654943;35;152079;-76
2021/08/13 07:20:11;;;;;;;;;18.00;16.00;;;;;;;;2566601;30;151589;-78
2021/08/13 07:22:40;;;;;;;;;18.33;16.33;;;;;;;;2569612;30;150387;-78
2021/08/13 07:25:11;;;;;;;;;17.75;17.75;;;;;;;;2567362;30;150992;-76
2021/08/13 07:27:40;;;;;;;;;16.25;16.25;;;;;;;;2569747;30;149403;-77
2021/08/13 07:30:09;;;;;;;;;14.00;12.75;;;;;;;;2566577;30;151840;-75
2021/08/13 07:32:37;;;;;;;;;15.75;15.00;;;;;;;;2565468;38;149196;-76
2021/08/13 07:35:06;;;;;;;;;17.50;17.50;;;;;;;;2564220;38;152181;-75
2021/08/13 07:37:35;;;;;;;;;18.00;17.00;;;;;;;;2567522;30;151192;-74
2021/08/13 07:40:04;;;;;;;;;17.33;17.00;;;;;;;;2565239;30;149655;-74
2021/08/13 07:42:33;;;;;;;;;16.67;16.00;;;;;;;;2567739;30;150816;-74
2021/08/13 07:45:02;;;;;;;;;17.33;17.33;;;;;;;;2567847;30;151749;-77
2021/08/13 07:47:30;;;;;;;;;16.67;16.67;;;;;;;;2570871;30;149794;-77
2021/08/13 07:49:59;;;;;;;;;17.67;16.00;;;;;;;;2567913;30;151190;-75
2021/08/13 07:52:27;;;;;;;;;17.67;15.33;;;;;;;;2564374;38;150014;-79
2021/08/13 07:54:59;;;;;;;;;17.50;15.50;;;;;;;;2566350;30;151478;-79
2021/08/13 07:57:29;;;;;;;;;17.67;16.33;;;;;;;;2564040;30;150105;-79
2021/08/13 07:59:58;;;;;;;;;16.33;16.00;;;;;;;;2563263;38;150277;-77
2021/08/13 08:02:31;;;;;;;;;15.33;15.33;;;;;;;;2568491;30;149810;-78
2021/08/13 08:05:01;;;;;;;;;16.00;16.00;;;;;;;;2564550;30;149934;-79
2021/08/13 08:07:31;;;;;;;;;15.67;15.00;;;;;;;;2565619;38;149640;-78
2021/08/13 08:10:02;;;;;;;;;15.67;15.67;;;;;;;;2569179;30;150882;-80
2021/08/13 08:12:31;;;;;;;;;16.33;15.33;;;;;;;;2567694;38;149583;-79
2021/08/13 08:15:01;;;;;;;;;18.00;18.00;;;;;;;;2566325;30;150877;-79
2021/08/13 08:17:32;;;;;;;;;15.67;14.00;;;;;;;;2565261;30;150880;-79
